Time;durP1;ratioP1;P1;durP2;ratioP2;P2;SDS_P1;SDS_P2;PMS_P1;PMS_P2;Temp;Humidity;BMP_temperature;BMP_pressure;BME280_temperature;BME280_humidity;BME280_pressure;Samples;Min_cycle;Max_cycle;Signal;HPM_P1;HPM_P2
2021/10/31 00:02:15;;;;;;;35.77;27.70;;;;;;;10.86;69.08;102361.00;6121149;23;20154;-61
2021/10/31 00:04:40;;;;;;;38.83;27.67;;;;;;;10.69;69.18;102343.13;6094295;23;20526;-61
2021/10/31 00:07:06;;;;;;;34.07;26.50;;;;;;;10.91;69.14;102369.72;6120031;23;20151;-61
2021/10/31 00:09:32;;;;;;;37.17;27.90;;;;;;;10.90;69.30;102365.38;6121262;23;20548;-61
2021/10/31 00:11:59;;;;;;;36.50;26.77;;;;;;;10.49;69.20;102302.25;6120718;23;20218;-61
2021/10/31 00:14:24;;;;;;;38.97;27.57;;;;;;;10.87;69.21;102352.28;6120988;23;20158;-61
2021/10/31 00:16:50;;;;;;;35.87;27.33;;;;;;;10.88;69.10;102353.88;6119450;23;20153;-61
2021/10/31 00:19:15;;;;;;;37.07;27.33;;;;;;;10.89;69.34;102363.78;6094851;23;20168;-62
2021/10/31 00:21:41;;;;;;;38.47;28.33;;;;;;;10.88;69.35;102362.22;6121279;23;20472;-61
2021/10/31 00:24:06;;;;;;;36.30;26.93;;;;;;;10.82;69.49;102347.09;6121660;23;20155;-61
2021/10/31 00:26:33;;;;;;;33.90;27.77;;;;;;;10.88;69.38;102353.88;6096061;23;20182;-61
2021/10/31 00:28:59;;;;;;;34.07;27.33;;;;;;;10.74;69.64;102337.19;6122798;23;20165;-61
2021/10/31 00:31:25;;;;;;;33.37;26.10;;;;;;;10.55;69.40;102303.50;6122603;23;20632;-61
2021/10/31 00:33:51;;;;;;;35.13;26.03;;;;;;;10.88;69.49;102350.31;6122544;23;20180;-61
2021/10/31 00:36:16;;;;;;;35.13;27.07;;;;;;;10.87;69.61;102343.19;6121442;23;20150;-61
2021/10/31 00:38:42;;;;;;;35.23;27.53;;;;;;;10.83;69.60;102345.94;6122625;23;20155;-61
2021/10/31 00:41:07;;;;;;;34.73;26.23;;;;;;;10.82;69.51;102344.34;6122557;23;20212;-62
2021/10/31 00:43:33;;;;;;;35.70;27.40;;;;;;;10.83;69.49;102343.16;6122799;23;20627;-61
2021/10/31 00:45:58;;;;;;;34.87;25.90;;;;;;;10.86;69.26;102342.38;6121301;23;20517;-61
2021/10/31 00:48:24;;;;;;;33.80;25.20;;;;;;;10.49;69.76;102278.13;6096253;23;20213;-61
2021/10/31 00:50:51;;;;;;;31.23;24.70;;;;;;;10.79;69.64;102336.00;6122658;23;20237;-61
2021/10/31 00:53:17;;;;;;;33.77;25.40;;;;;;;10.53;69.74;102309.41;6096226;23;20161;-61
2021/10/31 00:55:43;;;;;;;37.20;25.80;;;;;;;10.66;69.84;102329.25;6121244;23;20221;-61
2021/10/31 00:58:10;;;;;;;34.57;26.17;;;;;;;10.49;69.92;102316.91;6122725;23;20164;-61
2021/10/31 01:00:36;;;;;;;36.53;27.17;;;;;;;10.58;70.18;102320.13;6096451;23;20215;-61
2021/10/31 01:03:01;;;;;;;33.83;26.50;;;;;;;10.65;70.23;102336.78;6122253;23;20157;-61
2021/10/31 01:05:32;;;;;;;33.30;26.00;;;;;;;10.52;70.12;102318.13;6122341;23;20258;-61
2021/10/31 01:08:33;;;;;;;32.03;25.27;;;;;;;10.72;70.30;102338.78;6122522;23;20165;-61
2021/10/31 01:11:20;;;;;;;32.43;25.30;;;;;;;10.71;70.38;102343.50;6110489;23;20574;-61
2021/10/31 01:14:13;;;;;;;33.97;25.37;;;;;;;10.32;70.35;102270.56;6122053;23;20141;-62
2021/10/31 01:17:07;;;;;;;34.30;25.73;;;;;;;10.74;70.47;102333.63;6121171;23;20623;-61
2021/10/31 01:20:16;;;;;;;35.20;25.40;;;;;;;10.72;70.24;102330.47;6103290;23;20501;-61
2021/10/31 01:22:50;;;;;;;35.90;25.90;;;;;;;10.70;70.31;102339.16;6004077;23;20640;-61
2021/10/31 01:25:31;;;;;;;33.83;26.17;;;;;;;10.72;70.46;102328.47;6003640;23;20206;-61
2021/10/31 01:28:05;;;;;;;32.70;24.23;;;;;;;10.69;70.61;102323.72;6080419;23;20249;-61
2021/10/31 01:30:37;;;;;;;33.77;26.03;;;;;;;10.68;70.58;102321.34;6122261;23;20155;-61
2021/10/31 01:33:05;;;;;;;33.80;24.37;;;;;;;10.66;70.78;102321.72;6122056;23;20160;-61
2021/10/31 01:35:53;;;;;;;32.53;24.53;;;;;;;10.63;70.74;102314.19;6121639;23;20606;-62
2021/10/31 01:38:31;;;;;;;32.80;24.90;;;;;;;10.65;70.73;102311.81;6122289;23;20155;-61
2021/10/31 01:41:24;;;;;;;32.00;23.07;;;;;;;10.65;70.67;102317.38;6122192;23;20569;-61
2021/10/31 01:44:07;;;;;;;32.67;23.87;;;;;;;10.69;70.69;102306.28;6095932;23;20159;-61
2021/10/31 01:46:36;;;;;;;31.70;23.63;;;;;;;10.71;70.47;102306.69;6120803;23;20203;-62
2021/10/31 01:49:48;;;;;;;34.20;24.37;;;;;;;10.72;70.48;102299.97;6121890;23;20564;-61
2021/10/31 01:52:20;;;;;;;33.30;24.03;;;;;;;10.70;70.82;102305.09;6003955;23;20168;-61
2021/10/31 01:54:59;;;;;;;31.27;24.23;;;;;;;10.69;70.90;102296.00;6111598;23;20193;-61
2021/10/31 01:57:26;;;;;;;32.17;25.03;;;;;;;10.69;70.89;102300.72;6121230;23;20145;-61
2021/10/31 02:00:01;;;;;;;32.50;24.73;;;;;;;10.70;70.84;102294.78;6095524;23;20564;-61
2021/10/31 02:02:30;;;;;;;34.73;25.47;;;;;;;10.72;71.07;102295.19;6122012;23;20144;-61
2021/10/31 02:04:58;;;;;;;34.83;26.30;;;;;;;10.72;70.96;102300.72;6121016;23;20222;-61
2021/10/31 02:07:25;;;;;;;32.33;24.47;;;;;;;10.75;70.89;102304.69;6121064;23;20157;-61
2021/10/31 02:09:52;;;;;;;33.77;25.77;;;;;;;10.70;71.21;102288.44;6122064;23;20676;-61
2021/10/31 02:12:21;;;;;;;35.57;24.50;;;;;;;10.55;71.02;102267.44;6121592;23;20153;-61
2021/10/31 02:14:47;;;;;;;33.40;25.67;;;;;;;10.76;70.98;102286.91;6121089;23;20153;-61
2021/10/31 02:17:18;;;;;;;31.90;23.83;;;;;;;10.76;71.01;102298.75;6120996;23;20158;-61
2021/10/31 02:19:45;;;;;;;32.97;24.63;;;;;;;10.77;70.99;102296.78;6121427;23;20157;-61
2021/10/31 02:22:18;;;;;;;30.27;22.30;;;;;;;10.73;71.17;102291.25;6121858;23;20227;-71
2021/10/31 02:24:45;;;;;;;34.63;22.83;;;;;;;10.74;71.26;102292.81;6121036;23;20227;-61
2021/10/31 02:27:22;;;;;;;30.53;22.37;;;;;;;10.69;71.09;102282.13;6121146;23;20162;-61
2021/10/31 02:29:53;;;;;;;28.77;22.57;;;;;;;10.74;71.10;102290.06;6121726;23;20678;-62
2021/10/31 02:32:22;;;;;;;31.23;24.10;;;;;;;10.66;71.22;102280.13;6121460;23;20162;-61
2021/10/31 02:34:48;;;;;;;34.60;24.67;;;;;;;10.65;71.20;102263.91;6120865;23;20225;-62
2021/10/31 02:37:14;;;;;;;32.97;24.43;;;;;;;10.74;71.25;102276.19;6120867;23;20184;-61
2021/10/31 02:39:40;;;;;;;36.87;25.63;;;;;;;10.72;71.43;102277.78;6121505;23;20161;-62
2021/10/31 02:42:05;;;;;;;35.43;25.90;;;;;;;10.73;71.38;102271.03;6121450;23;20153;-62
2021/10/31 02:44:31;;;;;;;33.07;24.67;;;;;;;10.50;71.33;102235.34;6121254;23;20198;-62
2021/10/31 02:46:57;;;;;;;32.53;23.87;;;;;;;10.68;71.58;102272.22;6119567;23;20212;-62
2021/10/31 02:49:24;;;;;;;33.43;24.17;;;;;;;10.62;71.44;102259.13;6121452;23;20581;-61
2021/10/31 02:52:11;;;;;;;31.90;23.60;;;;;;;10.63;71.37;102264.28;6121376;23;20190;-61
2021/10/31 02:54:58;;;;;;;32.60;24.77;;;;;;;10.64;71.19;102256.75;6120776;23;20152;-61
2021/10/31 02:57:28;;;;;;;36.43;24.67;;;;;;;10.60;71.26;102267.06;6120581;23;20211;-61
2021/10/31 02:59:57;;;;;;;34.60;24.20;;;;;;;10.54;71.54;102263.88;6121209;23;20161;-62
2021/10/31 03:02:26;;;;;;;32.80;24.97;;;;;;;10.53;71.45;102256.75;6121302;23;20156;-61
2021/10/31 03:04:52;;;;;;;33.93;26.47;;;;;;;10.42;71.80;102233.75;6120641;23;20179;-61
2021/10/31 03:07:20;;;;;;;34.50;25.73;;;;;;;10.53;71.57;102251.19;6120559;23;20162;-61
2021/10/31 03:09:49;;;;;;;35.87;26.83;;;;;;;10.52;71.80;102255.16;6121336;23;20157;-62
2021/10/31 03:12:16;;;;;;;35.20;26.53;;;;;;;10.46;71.63;102248.41;6121340;23;20476;-61
2021/10/31 03:14:43;;;;;;;32.07;24.93;;;;;;;10.47;71.56;102249.19;6094642;23;20156;-61
2021/10/31 03:17:08;;;;;;;33.57;25.73;;;;;;;10.16;71.60;102202.81;6120269;23;20154;-61
2021/10/31 03:19:36;;;;;;;36.60;26.70;;;;;;;10.32;71.65;102233.72;6121445;23;20163;-62
2021/10/31 03:22:02;;;;;;;36.10;25.73;;;;;;;10.20;71.57;102215.47;6121024;23;20168;-61
2021/10/31 03:24:28;;;;;;;39.60;26.50;;;;;;;10.46;71.89;102250.38;6121062;23;20212;-62
2021/10/31 03:26:53;;;;;;;40.30;26.00;;;;;;;10.45;71.62;102254.34;6120143;23;20189;-61
2021/10/31 03:29:21;;;;;;;36.43;25.97;;;;;;;10.24;71.78;102224.59;6121519;23;20647;-62
2021/10/31 03:31:47;;;;;;;35.30;26.13;;;;;;;10.32;71.80;102231.75;6121039;23;20215;-61
2021/10/31 03:34:13;;;;;;;34.70;26.50;;;;;;;10.45;71.73;102252.34;6121311;23;20239;-62
2021/10/31 03:36:38;;;;;;;35.83;26.27;;;;;;;10.41;71.93;102239.69;6119634;23;20155;-62
2021/10/31 03:39:04;;;;;;;36.53;25.83;;;;;;;10.46;71.99;102253.94;6120950;23;20559;-61
2021/10/31 03:41:29;;;;;;;39.03;27.37;;;;;;;10.15;72.09;102212.31;6121584;23;20232;-61
2021/10/31 03:43:55;;;;;;;40.07;27.23;;;;;;;9.96;71.87;102185.72;6121049;23;20266;-62
2021/10/31 03:46:20;;;;;;;40.00;27.53;;;;;;;10.22;71.99;102221.44;6118971;23;20183;-62
2021/10/31 03:48:46;;;;;;;40.70;28.00;;;;;;;10.45;72.37;102259.91;6121269;23;20156;-61
2021/10/31 03:51:11;;;;;;;39.17;26.40;;;;;;;10.48;72.12;102250.78;6121105;23;20159;-61
2021/10/31 03:53:37;;;;;;;34.60;26.13;;;;;;;10.48;72.03;102250.78;6121294;23;20161;-62
2021/10/31 03:56:02;;;;;;;37.30;27.13;;;;;;;10.50;72.28;102257.53;6119306;23;20620;-61
2021/10/31 03:58:28;;;;;;;40.30;28.13;;;;;;;10.51;72.28;102248.00;6122263;23;20168;-61
2021/10/31 04:00:53;;;;;;;39.30;26.57;;;;;;;10.49;72.23;102250.41;6123077;23;20159;-62
2021/10/31 04:03:19;;;;;;;42.57;26.83;;;;;;;10.50;72.37;102256.75;6123127;23;20570;-62
2021/10/31 04:05:44;;;;;;;37.80;26.50;;;;;;;10.53;72.01;102253.16;6121191;23;20176;-62
2021/10/31 04:08:10;;;;;;;35.90;26.77;;;;;;;10.45;72.14;102226.63;6123093;23;20189;-61
2021/10/31 04:10:36;;;;;;;36.03;26.63;;;;;;;10.57;72.11;102242.88;6123246;23;20156;-61
2021/10/31 04:13:01;;;;;;;36.03;25.63;;;;;;;10.57;72.16;102249.25;6122907;23;20157;-62
2021/10/31 04:15:27;;;;;;;37.13;26.27;;;;;;;10.37;72.22;102211.16;6122481;23;20155;-61
2021/10/31 04:17:52;;;;;;;37.77;26.33;;;;;;;10.19;72.48;102186.19;6122218;23;20158;-62
2021/10/31 04:20:18;;;;;;;40.93;27.87;;;;;;;10.39;72.01;102219.88;6122739;23;20152;-61
2021/10/31 04:22:48;;;;;;;42.67;27.63;;;;;;;10.51;71.98;102238.91;6096829;23;20162;-61
2021/10/31 04:25:14;;;;;;;43.53;28.03;;;;;;;10.42;71.74;102222.69;6122380;23;20252;-61
2021/10/31 04:27:40;;;;;;;44.37;28.20;;;;;;;10.11;72.03;102172.72;6121813;23;20176;-61
2021/10/31 04:30:08;;;;;;;44.33;28.90;;;;;;;10.35;72.20;102228.19;6122852;23;20232;-62
2021/10/31 04:32:35;;;;;;;42.77;28.77;;;;;;;10.41;72.32;102232.16;6122893;23;20151;-61
2021/10/31 04:35:01;;;;;;;41.70;28.47;;;;;;;10.44;72.52;102227.81;6122074;23;20167;-62
2021/10/31 04:37:28;;;;;;;41.40;28.93;;;;;;;10.13;72.11;102181.41;6122123;23;20589;-61
2021/10/31 04:39:53;;;;;;;37.77;28.13;;;;;;;10.33;72.08;102210.34;6121578;23;20235;-61
2021/10/31 04:42:19;;;;;;;40.57;29.13;;;;;;;10.41;72.43;102223.84;6122547;23;20175;-61
2021/10/31 04:44:45;;;;;;;36.77;26.27;;;;;;;10.23;72.32;102188.97;6122315;23;20230;-61
2021/10/31 04:47:10;;;;;;;38.60;27.97;;;;;;;10.48;72.43;102228.59;6121109;23;20197;-61
2021/10/31 04:49:36;;;;;;;43.47;28.97;;;;;;;10.40;72.58;102224.25;6122766;23;20146;-61
2021/10/31 04:52:03;;;;;;;40.57;28.07;;;;;;;10.38;72.64;102223.84;6122766;23;20162;-62
2021/10/31 04:54:29;;;;;;;40.27;28.07;;;;;;;10.04;72.88;102161.63;6122171;23;20152;-61
2021/10/31 04:56:54;;;;;;;41.97;28.10;;;;;;;10.48;72.50;102220.28;6121283;23;20592;-62
2021/10/31 04:59:20;;;;;;;43.70;28.27;;;;;;;10.47;72.52;102225.06;6096309;23;20195;-61
2021/10/31 05:01:45;;;;;;;42.53;27.63;;;;;;;10.42;72.67;102214.34;6122148;23;20159;-61
2021/10/31 05:04:12;;;;;;;48.50;28.67;;;;;;;10.42;72.66;102217.13;6122604;23;20156;-62
2021/10/31 05:06:38;;;;;;;42.37;27.63;;;;;;;10.32;72.50;102214.31;6121351;23;20190;-61
2021/10/31 05:09:03;;;;;;;41.80;27.50;;;;;;;10.37;72.63;102205.63;6096118;23;20172;-61
2021/10/31 05:11:29;;;;;;;43.00;27.70;;;;;;;10.22;72.56;102174.34;6122607;23;20160;-61
2021/10/31 05:13:54;;;;;;;44.10;29.20;;;;;;;10.44;72.52;102200.88;6122736;23;20225;-61
2021/10/31 05:16:20;;;;;;;50.40;34.07;;;;;;;10.49;72.60;102205.25;6121174;23;20175;-61
2021/10/31 05:18:45;;;;;;;42.20;29.40;;;;;;;10.32;72.18;102173.56;6121927;23;20161;-61
2021/10/31 05:21:11;;;;;;;42.73;30.73;;;;;;;10.59;72.37;102218.31;6122576;23;20182;-61
2021/10/31 05:23:37;;;;;;;42.07;30.17;;;;;;;10.48;72.29;102204.47;6122555;23;20501;-61
2021/10/31 05:26:03;;;;;;;39.63;29.07;;;;;;;10.64;72.17;102217.94;6120961;23;20268;-61
2021/10/31 05:28:31;;;;;;;44.07;30.27;;;;;;;10.64;72.16;102215.16;6122128;23;20708;-61
2021/10/31 05:30:56;;;;;;;41.43;30.80;;;;;;;10.17;72.04;102138.69;6122313;23;20157;-61
2021/10/31 05:33:23;;;;;;;42.73;32.30;;;;;;;10.67;72.21;102217.94;6122297;23;20204;-61
2021/10/31 05:35:51;;;;;;;46.53;33.17;;;;;;;10.75;72.12;102221.50;6121002;23;20156;-61
2021/10/31 05:38:19;;;;;;;44.23;32.20;;;;;;;10.55;72.19;102198.91;6122022;23;20151;-61
2021/10/31 05:40:48;;;;;;;42.90;31.60;;;;;;;10.47;72.14;102183.47;6122295;23;20187;-61
2021/10/31 05:43:14;;;;;;;42.40;31.53;;;;;;;10.80;72.05;102235.78;6122375;23;20231;-61
2021/10/31 05:45:40;;;;;;;44.07;31.13;;;;;;;10.81;72.11;102226.28;6120843;23;20643;-61
2021/10/31 05:48:06;;;;;;;43.43;32.20;;;;;;;10.80;71.98;102232.22;6121475;23;20212;-62
2021/10/31 05:50:31;;;;;;;43.47;31.23;;;;;;;10.87;71.94;102237.78;6122385;23;20180;-61
2021/10/31 05:52:57;;;;;;;42.77;32.63;;;;;;;10.62;72.19;102204.50;6122003;23;20607;-61
2021/10/31 05:55:22;;;;;;;45.47;32.40;;;;;;;10.56;72.09;102188.63;6121956;23;20156;-61
2021/10/31 05:57:48;;;;;;;48.17;32.87;;;;;;;10.95;72.11;102242.13;6121097;23;20161;-61
2021/10/31 06:00:15;;;;;;;41.13;30.83;;;;;;;10.98;71.99;102244.13;6121683;23;20209;-61
2021/10/31 06:02:41;;;;;;;45.70;31.33;;;;;;;11.01;71.98;102241.34;6122313;23;20156;-61
2021/10/31 06:05:07;;;;;;;45.57;31.20;;;;;;;10.96;72.10;102224.31;6121497;23;20157;-61
2021/10/31 06:07:32;;;;;;;42.57;31.00;;;;;;;11.06;71.83;102243.72;6121224;23;20161;-61
2021/10/31 06:09:58;;;;;;;42.60;31.67;;;;;;;11.12;71.74;102236.56;6122458;23;20597;-61
2021/10/31 06:12:24;;;;;;;43.00;31.37;;;;;;;11.01;71.56;102218.38;6121946;23;20152;-61
2021/10/31 06:14:50;;;;;;;44.17;32.47;;;;;;;11.22;71.60;102237.78;6121306;23;20165;-61
2021/10/31 06:17:16;;;;;;;41.37;30.57;;;;;;;10.79;71.29;102161.28;6121262;23;20505;-61
2021/10/31 06:19:41;;;;;;;43.83;31.70;;;;;;;11.24;71.67;102240.94;6121708;23;20605;-61
2021/10/31 06:22:07;;;;;;;44.73;32.30;;;;;;;11.26;71.56;102247.69;6122048;23;20154;-61
2021/10/31 06:24:33;;;;;;;39.63;29.03;;;;;;;11.15;71.22;102207.25;6122002;23;20159;-61
2021/10/31 06:26:59;;;;;;;38.33;29.73;;;;;;;11.48;70.95;102243.66;6121384;23;20178;-61
2021/10/31 06:29:25;;;;;;;39.60;28.77;;;;;;;11.49;70.43;102245.28;6121787;23;20713;-61
2021/10/31 06:31:52;;;;;;;38.93;28.57;;;;;;;11.54;70.36;102244.06;6121956;23;20158;-61
2021/10/31 06:34:17;;;;;;;39.67;28.57;;;;;;;11.59;70.13;102247.25;6122056;23;20158;-62
2021/10/31 06:36:44;;;;;;;39.27;29.87;;;;;;;11.64;69.87;102243.28;6120736;23;20151;-61
2021/10/31 06:39:09;;;;;;;40.90;29.37;;;;;;;11.61;69.98;102244.88;6122255;23;20244;-61
2021/10/31 06:41:35;;;;;;;40.70;29.47;;;;;;;11.72;69.91;102247.59;6122163;23;20624;-61
2021/10/31 06:44:01;;;;;;;41.70;29.27;;;;;;;11.80;69.90;102251.97;6095936;23;20162;-61
2021/10/31 06:46:27;;;;;;;43.53;30.37;;;;;;;11.82;69.95;102252.34;6120196;23;20178;-61
2021/10/31 06:48:52;;;;;;;43.37;30.40;;;;;;;11.92;69.65;102257.06;6122248;23;20214;-61
2021/10/31 06:51:19;;;;;;;43.80;31.27;;;;;;;11.56;69.35;102194.47;6121916;23;20150;-62
2021/10/31 06:53:45;;;;;;;40.03;30.30;;;;;;;12.02;69.24;102253.47;6121679;23;20154;-61
2021/10/31 06:56:11;;;;;;;41.23;30.07;;;;;;;12.09;68.89;102257.00;6120759;23;20151;-61
2021/10/31 06:58:37;;;;;;;44.53;31.93;;;;;;;12.04;68.73;102239.97;6121500;23;20597;-61
2021/10/31 07:01:03;;;;;;;44.43;30.23;;;;;;;12.27;68.65;102256.94;6121588;23;20706;-61
2021/10/31 07:03:28;;;;;;;50.63;33.93;;;;;;;12.15;68.87;102243.50;6121222;23;20183;-61
2021/10/31 07:05:54;;;;;;;52.37;34.70;;;;;;;12.14;68.91;102256.59;6093967;23;20186;-61
2021/10/31 07:08:19;;;;;;;51.93;35.13;;;;;;;11.99;68.84;102218.16;6121337;23;20225;-61
2021/10/31 07:10:45;;;;;;;61.60;42.37;;;;;;;12.09;68.92;102250.66;6095223;23;20158;-62
2021/10/31 07:13:10;;;;;;;55.13;40.20;;;;;;;12.09;68.88;102248.66;6095761;23;20168;-62
2021/10/31 07:15:36;;;;;;;56.57;41.27;;;;;;;12.18;68.27;102254.59;6120491;23;20156;-62
2021/10/31 07:18:02;;;;;;;58.50;39.17;;;;;;;12.09;68.36;102257.00;6121013;23;20618;-61
2021/10/31 07:20:28;;;;;;;59.20;39.10;;;;;;;12.01;68.68;102254.66;6120982;23;20512;-61
2021/10/31 07:22:53;;;;;;;55.03;39.60;;;;;;;12.16;68.36;102250.63;6121443;23;20150;-61
2021/10/31 07:25:21;;;;;;;49.77;38.17;;;;;;;12.13;67.94;102237.53;6120696;23;20278;-62
2021/10/31 07:27:47;;;;;;;53.47;36.60;;;;;;;12.32;67.68;102251.75;6120402;23;20154;-61
2021/10/31 07:30:12;;;;;;;49.27;37.27;;;;;;;12.11;67.64;102207.38;6121032;23;20160;-61
2021/10/31 07:32:38;;;;;;;55.80;39.07;;;;;;;12.46;67.03;102243.31;6121743;23;20155;-61
2021/10/31 07:35:06;;;;;;;55.47;39.40;;;;;;;12.46;66.87;102232.19;6120454;23;20154;-61
2021/10/31 07:37:32;;;;;;;55.33;39.40;;;;;;;12.46;66.54;102246.09;6120617;23;20163;-61
2021/10/31 07:39:58;;;;;;;51.67;39.37;;;;;;;12.40;66.91;102233.81;6120727;23;20608;-61
2021/10/31 07:42:31;;;;;;;57.73;38.97;;;;;;;12.61;66.53;102244.81;6121066;23;20487;-61
2021/10/31 07:44:59;;;;;;;46.33;36.27;;;;;;;12.71;65.95;102251.50;6121003;23;20217;-61
2021/10/31 07:47:25;;;;;;;47.57;35.33;;;;;;;12.37;66.05;102226.31;6119862;23;20202;-61
2021/10/31 07:49:51;;;;;;;45.53;35.47;;;;;;;12.31;66.46;102202.09;6120885;23;20232;-61
2021/10/31 07:52:21;;;;;;;44.67;34.17;;;;;;;12.67;65.94;102240.41;6121166;23;20247;-61
2021/10/31 07:54:47;;;;;;;43.97;32.73;;;;;;;12.76;65.75;102235.16;6120486;23;20212;-61
2021/10/31 07:57:14;;;;;;;47.17;33.27;;;;;;;12.86;65.49;102239.09;6120438;23;20152;-61
2021/10/31 07:59:39;;;;;;;41.30;32.07;;;;;;;12.74;65.70;102237.56;6121203;23;20165;-61
2021/10/31 08:02:05;;;;;;;48.87;33.70;;;;;;;12.73;65.63;102236.00;6094839;23;20163;-61
2021/10/31 08:04:32;;;;;;;48.70;33.77;;;;;;;12.45;66.41;102229.84;6121030;23;20157;-61
2021/10/31 08:06:57;;;;;;;48.00;33.27;;;;;;;12.57;66.63;102229.34;6119765;23;20175;-61
2021/10/31 08:09:23;;;;;;;43.23;34.13;;;;;;;12.61;66.37;102230.13;6120890;23;20185;-61
2021/10/31 08:11:48;;;;;;;43.63;33.97;;;;;;;12.58;66.39;102228.16;6119993;23;20520;-61
2021/10/31 08:14:14;;;;;;;43.17;33.10;;;;;;;12.60;66.27;102214.63;6121314;23;20153;-61
2021/10/31 08:16:40;;;;;;;41.07;33.00;;;;;;;12.67;66.47;102218.16;6119245;23;20550;-61
2021/10/31 08:19:07;;;;;;;45.57;31.30;;;;;;;12.67;66.20;102220.94;6120482;23;20485;-61
2021/10/31 08:21:33;;;;;;;41.07;30.73;;;;;;;12.64;66.44;102220.94;6120248;23;20230;-61
2021/10/31 08:23:59;;;;;;;39.87;30.40;;;;;;;12.61;66.45;102219.78;6120575;23;20681;-61
2021/10/31 08:26:25;;;;;;;38.33;30.00;;;;;;;12.71;66.90;102215.34;6119269;23;20182;-61
2021/10/31 08:28:51;;;;;;;38.73;30.90;;;;;;;12.81;66.24;102206.13;6120393;23;20247;-61
2021/10/31 08:31:30;;;;;;;36.77;29.67;;;;;;;12.85;65.89;102206.88;6094007;23;20251;-61
2021/10/31 08:34:01;;;;;;;39.37;30.67;;;;;;;12.97;65.73;102204.41;6120542;23;20612;-61
2021/10/31 08:36:28;;;;;;;38.03;28.33;;;;;;;13.21;65.42;102211.75;6118880;23;20551;-61
2021/10/31 08:38:54;;;;;;;36.50;28.87;;;;;;;13.46;64.80;102206.72;6120360;23;20151;-61
2021/10/31 08:41:22;;;;;;;39.13;28.83;;;;;;;13.56;64.08;102211.41;6120177;23;20200;-61
2021/10/31 08:43:49;;;;;;;39.30;29.67;;;;;;;13.69;63.90;102209.66;6120721;23;20150;-61
2021/10/31 08:46:15;;;;;;;41.30;29.93;;;;;;;13.78;63.41;102212.72;6120911;23;20530;-61
2021/10/31 08:48:41;;;;;;;42.33;30.60;;;;;;;13.51;63.04;102158.13;6122726;23;20233;-61
2021/10/31 08:51:08;;;;;;;39.20;28.73;;;;;;;14.03;62.39;102206.88;6122528;23;20174;-61
2021/10/31 08:53:35;;;;;;;36.97;28.77;;;;;;;14.23;62.17;102205.00;6122872;23;20574;-62
2021/10/31 08:56:01;;;;;;;34.67;25.87;;;;;;;14.28;61.14;102201.75;6121062;23;20278;-61
2021/10/31 08:58:27;;;;;;;34.63;26.27;;;;;;;14.30;60.89;102202.16;6122430;23;20154;-62
2021/10/31 09:00:53;;;;;;;34.67;26.30;;;;;;;14.17;60.40;102190.72;6122240;23;20158;-61
2021/10/31 09:03:19;;;;;;;33.90;25.93;;;;;;;14.42;60.36;102201.56;6122814;23;20150;-61
2021/10/31 09:05:44;;;;;;;34.30;26.20;;;;;;;14.51;60.34;102197.03;6121214;23;20182;-61
2021/10/31 09:08:10;;;;;;;36.87;26.87;;;;;;;14.60;60.47;102193.72;6122417;23;20234;-62
2021/10/31 09:10:40;;;;;;;34.40;24.97;;;;;;;14.62;60.21;102196.88;6121803;23;20514;-62
2021/10/31 09:13:06;;;;;;;33.53;26.23;;;;;;;14.73;60.04;102192.72;6122408;23;20209;-62
2021/10/31 09:15:32;;;;;;;36.67;26.40;;;;;;;14.83;59.84;102186.16;6121718;23;20513;-62
2021/10/31 09:18:02;;;;;;;36.07;26.97;;;;;;;15.00;59.12;102192.66;6122043;23;20230;-62
2021/10/31 09:20:28;;;;;;;33.67;25.10;;;;;;;14.98;59.21;102181.94;6096079;23;20194;-62
2021/10/31 09:22:55;;;;;;;33.70;27.53;;;;;;;14.99;58.99;102188.28;6122083;23;20627;-62
2021/10/31 09:25:21;;;;;;;35.33;26.60;;;;;;;14.83;59.24;102171.41;6095684;23;20197;-62
2021/10/31 09:27:47;;;;;;;38.57;27.70;;;;;;;14.76;59.08;102144.41;6121420;23;20165;-62
2021/10/31 09:30:13;;;;;;;37.17;28.33;;;;;;;15.14;58.74;102182.03;6122342;23;20479;-62
2021/10/31 09:32:44;;;;;;;36.83;26.90;;;;;;;15.28;58.53;102181.78;6122397;23;20559;-62
2021/10/31 09:35:10;;;;;;;36.10;27.80;;;;;;;15.42;57.98;102172.38;6121626;23;20172;-62
2021/10/31 09:37:35;;;;;;;35.80;26.87;;;;;;;15.41;57.58;102137.25;6121309;23;20575;-61
2021/10/31 09:40:03;;;;;;;33.40;27.33;;;;;;;15.24;57.21;102141.16;6121843;23;20189;-61
2021/10/31 09:42:29;;;;;;;34.10;27.73;;;;;;;15.22;57.92;102165.94;6121921;23;20652;-62
2021/10/31 09:44:54;;;;;;;37.93;27.80;;;;;;;15.27;58.26;102157.84;6122207;23;20237;-61
2021/10/31 09:47:22;;;;;;;31.33;25.23;;;;;;;15.40;58.07;102156.03;6120729;23;20210;-62
2021/10/31 09:49:47;;;;;;;38.87;28.33;;;;;;;15.60;58.02;102159.63;6122223;23;20161;-62
2021/10/31 09:52:13;;;;;;;35.67;27.63;;;;;;;15.32;57.71;102095.13;6121865;23;20597;-62
2021/10/31 09:54:38;;;;;;;33.93;27.77;;;;;;;15.15;58.53;102163.25;6121433;23;20154;-62
2021/10/31 09:57:04;;;;;;;35.03;28.03;;;;;;;15.08;59.05;102146.66;6120985;23;20602;-62
2021/10/31 09:59:30;;;;;;;38.17;27.80;;;;;;;15.10;59.21;102117.09;6122096;23;20158;-62
2021/10/31 10:04:38;;;;;;;35.87;27.07;;;;;;;15.64;58.27;102140.00;6122230;23;20168;-62
2021/10/31 10:07:09;;;;;;;34.60;26.43;;;;;;;15.39;58.03;102081.84;6120982;23;20178;-62
2021/10/31 10:09:35;;;;;;;33.33;26.77;;;;;;;15.71;58.34;102134.25;6122030;23;20216;-62
2021/10/31 10:12:13;;;;;;;38.03;27.43;;;;;;;15.62;58.13;102104.09;6095479;23;20842;-62
2021/10/31 10:14:39;;;;;;;36.43;27.70;;;;;;;15.71;57.69;102109.09;6095542;23;20489;-62
2021/10/31 10:17:09;;;;;;;35.30;27.33;;;;;;;15.88;57.57;102127.50;6120614;23;20221;-62
2021/10/31 10:19:50;;;;;;;35.30;27.50;;;;;;;15.79;58.14;102111.28;6122282;23;20185;-62
2021/10/31 10:22:20;;;;;;;34.93;28.07;;;;;;;15.85;58.08;102117.97;6121563;23;20138;-62
2021/10/31 10:24:55;;;;;;;38.77;28.07;;;;;;;15.91;58.19;102115.44;6121348;23;20151;-62
2021/10/31 10:27:24;;;;;;;33.67;26.97;;;;;;;15.96;57.86;102109.34;6120865;23;20182;-62
2021/10/31 10:29:50;;;;;;;35.30;27.77;;;;;;;15.85;58.14;102109.59;6121690;23;20624;-62
2021/10/31 10:32:19;;;;;;;36.27;27.10;;;;;;;15.64;58.35;102112.84;6121522;23;20154;-62
2021/10/31 10:34:57;;;;;;;34.17;28.03;;;;;;;15.42;59.12;102105.34;6121286;23;20590;-62
2021/10/31 10:37:27;;;;;;;35.23;27.00;;;;;;;15.60;58.67;102097.34;6120642;23;20145;-62
2021/10/31 10:39:58;;;;;;;36.30;26.93;;;;;;;15.73;58.72;102098.28;6121495;23;20161;-62
2021/10/31 10:42:33;;;;;;;33.60;25.43;;;;;;;15.83;58.60;102098.03;6121352;23;20197;-62
2021/10/31 10:45:02;;;;;;;31.57;24.70;;;;;;;15.85;58.52;102092.81;6095067;23;20208;-62
2021/10/31 10:47:28;;;;;;;29.70;22.90;;;;;;;15.96;58.01;102084.97;6120677;23;20204;-62
2021/10/31 10:49:56;;;;;;;33.40;25.13;;;;;;;16.01;58.09;102092.03;6121424;23;20229;-62
2021/10/31 10:52:22;;;;;;;32.70;24.00;;;;;;;16.01;57.87;102081.66;6121472;23;20151;-62
2021/10/31 10:54:58;;;;;;;30.57;24.10;;;;;;;16.04;57.96;102071.63;6121033;23;20579;-62
2021/10/31 10:57:31;;;;;;;33.17;24.83;;;;;;;16.16;57.90;102079.31;6120496;23;20140;-62
2021/10/31 11:00:07;;;;;;;29.67;23.40;;;;;;;16.05;57.78;102071.19;6121330;23;20221;-62
2021/10/31 11:02:33;;;;;;;27.40;23.07;;;;;;;16.04;58.02;102066.78;6095306;23;20169;-62
2021/10/31 11:05:07;;;;;;;27.83;23.50;;;;;;;15.77;57.86;102034.72;6120899;23;20601;-62
2021/10/31 11:07:40;;;;;;;32.43;25.13;;;;;;;16.09;57.70;102068.28;6094440;23;20158;-63
2021/10/31 11:10:08;;;;;;;30.20;24.83;;;;;;;16.10;58.17;102056.69;6121349;23;20168;-62
2021/10/31 11:12:36;;;;;;;31.00;25.10;;;;;;;16.11;57.65;102049.06;6120960;23;20154;-62
2021/10/31 11:15:15;;;;;;;32.97;25.30;;;;;;;15.86;57.43;101995.75;6120714;23;20193;-62
2021/10/31 11:17:43;;;;;;;30.77;24.60;;;;;;;16.27;57.26;102049.88;6120651;23;20146;-62